createdAt,value
2023-04-05T00:00:28.412Z,90.4
2023-04-05T00:03:35.530Z,90.4
2023-04-05T00:06:24.851Z,90.8
2023-04-05T00:09:13.622Z,90.6
2023-04-05T00:12:03.680Z,89.8
2023-04-05T00:14:52.000Z,90.6
2023-04-05T00:17:39.520Z,90.2
2023-04-05T00:20:27.885Z,90.5
2023-04-05T00:23:15.367Z,89.4
2023-04-05T00:26:03.919Z,88.3
2023-04-05T00:28:52.542Z,89.7
2023-04-05T00:31:40.432Z,90.2
2023-04-05T00:34:28.058Z,90.6
2023-04-05T00:37:17.190Z,90.9
2023-04-05T00:40:06.775Z,91.4
2023-04-05T00:42:56.707Z,91.3
2023-04-05T00:45:44.287Z,91.5
2023-04-05T00:48:32.715Z,91.8
2023-04-05T00:51:21.156Z,92.6
2023-04-05T00:54:09.007Z,92.8
2023-04-05T00:56:58.557Z,92.9
2023-04-05T00:59:46.775Z,92.3
2023-04-05T01:02:34.222Z,92.6
2023-04-05T01:05:30.369Z,91.3
2023-04-05T01:08:23.729Z,91.1
2023-04-05T01:11:17.909Z,92.5
2023-04-05T01:14:06.769Z,92.6
2023-04-05T01:16:54.325Z,92.2
2023-04-05T01:19:42.900Z,92.2
2023-04-05T01:22:32.623Z,92.3
2023-04-05T01:26:02.726Z,92.2
2023-04-05T01:29:16.032Z,91.5
2023-04-05T01:32:33.180Z,90.5
2023-04-05T01:35:32.297Z,90
2023-04-05T01:38:25.856Z,91.5
2023-04-05T01:41:15.192Z,93
2023-04-05T01:44:03.198Z,94.1
2023-04-05T01:46:51.844Z,94.5
2023-04-05T01:49:39.404Z,94.6
2023-04-05T01:52:27.057Z,94.7
2023-04-05T01:55:14.491Z,95.6
2023-04-05T01:58:02.277Z,95.9
2023-04-05T02:00:51.207Z,96
2023-04-05T02:03:40.104Z,94.3
2023-04-05T02:06:27.692Z,93.9
2023-04-05T02:09:16.826Z,93.7
2023-04-05T02:12:04.642Z,94.6
2023-04-05T02:14:52.186Z,96.7
2023-04-05T02:17:39.720Z,97.5
2023-04-05T02:20:30.645Z,97.1
2023-04-05T02:23:19.228Z,96.4
2023-04-05T02:26:06.854Z,96.4
2023-04-05T02:28:54.520Z,96.3
2023-04-05T02:31:42.142Z,98.2
2023-04-05T02:34:29.766Z,97.1
2023-04-05T02:37:18.187Z,96.9
2023-04-05T02:40:06.709Z,97.9
2023-04-05T02:42:59.784Z,97.4
2023-04-05T02:45:48.683Z,96
2023-04-05T02:48:36.905Z,97.4
2023-04-05T02:51:24.830Z,97.3
2023-04-05T02:54:12.614Z,98.2
2023-04-05T02:57:00.829Z,96.6
2023-04-05T02:59:49.523Z,96.2
2023-04-05T03:02:37.098Z,97.7
2023-04-05T03:05:25.002Z,97.3
2023-04-05T03:08:13.458Z,98.1
2023-04-05T03:11:04.558Z,99.8
2023-04-05T03:13:53.152Z,99.2
2023-04-05T03:16:40.669Z,100
2023-04-05T03:19:28.278Z,100
2023-04-05T03:22:16.752Z,99.4
2023-04-05T03:25:04.531Z,97.8
2023-04-05T03:27:53.041Z,98.4
2023-04-05T03:30:40.606Z,99.2
2023-04-05T03:33:28.129Z,98.4
2023-04-05T03:36:15.604Z,99
2023-04-05T03:39:04.751Z,99.1
2023-04-05T03:41:54.061Z,99.9
2023-04-05T03:44:42.174Z,99
2023-04-05T03:47:29.985Z,99.6
2023-04-05T03:50:17.657Z,100
2023-04-05T03:53:05.347Z,100
2023-04-05T03:55:52.895Z,100
2023-04-05T03:58:40.570Z,100
2023-04-05T04:01:28.352Z,99.5
2023-04-05T04:04:16.074Z,100
2023-04-05T04:07:03.857Z,100
2023-04-05T04:09:51.725Z,100
2023-04-05T04:12:41.133Z,100
2023-04-05T04:15:29.532Z,100
2023-04-05T04:18:17.379Z,100
2023-04-05T04:21:05.177Z,100
2023-04-05T04:23:55.217Z,99.9
2023-04-05T04:26:42.667Z,100
2023-04-05T04:29:30.935Z,100
2023-04-05T04:32:23.601Z,100
2023-04-05T04:35:36.116Z,100
2023-04-05T04:38:23.699Z,99.4
2023-04-05T04:41:11.266Z,98.8
2023-04-05T04:44:02.490Z,100
2023-04-05T04:46:51.309Z,100
2023-04-05T04:49:39.361Z,100
2023-04-05T04:52:26.929Z,100
2023-04-05T04:55:14.418Z,100
2023-04-05T04:58:02.284Z,100
2023-04-05T05:00:54.622Z,100
2023-04-05T05:03:42.899Z,100
2023-04-05T05:06:30.443Z,100
2023-04-05T05:09:18.311Z,100
2023-04-05T05:12:05.824Z,100
2023-04-05T05:14:53.506Z,100
2023-04-05T05:17:41.464Z,100
2023-04-05T05:20:29.806Z,100
2023-04-05T05:23:17.654Z,100
2023-04-05T05:26:05.908Z,100
2023-04-05T05:28:53.471Z,100
2023-04-05T05:31:45.622Z,100
2023-04-05T05:34:33.096Z,100
2023-04-05T05:37:21.414Z,100
2023-04-05T05:40:16.974Z,100
2023-04-05T05:43:05.064Z,100
2023-04-05T05:45:53.170Z,100
2023-04-05T05:48:41.460Z,100
2023-04-05T05:51:28.977Z,100
2023-04-05T05:54:18.329Z,100
2023-04-05T05:57:06.257Z,100
2023-04-05T05:59:53.764Z,100
2023-04-05T06:02:41.216Z,100
2023-04-05T06:05:28.764Z,100
2023-04-05T06:08:16.287Z,100
2023-04-05T06:11:04.153Z,100
2023-04-05T06:13:52.851Z,100
2023-04-05T06:16:40.596Z,100
2023-04-05T06:19:28.157Z,100
2023-04-05T06:22:15.680Z,100
2023-04-05T06:25:03.681Z,100
2023-04-05T06:27:53.105Z,100
2023-04-05T06:30:40.895Z,100
2023-04-05T06:33:30.128Z,100
2023-04-05T06:36:17.609Z,100
2023-04-05T06:39:05.704Z,100
2023-04-05T06:41:53.468Z,100
2023-04-05T06:44:41.285Z,100
2023-04-05T06:47:30.013Z,100
2023-04-05T06:50:19.716Z,99.3
2023-04-05T06:53:07.408Z,98.5
2023-04-05T06:55:55.515Z,98.2
2023-04-05T06:58:44.655Z,98.4
2023-04-05T07:01:32.448Z,96.7
2023-04-05T07:04:20.350Z,96.6
2023-04-05T07:07:07.865Z,95.7
2023-04-05T07:09:55.551Z,97.4
2023-04-05T07:12:43.436Z,97.2
2023-04-05T07:15:31.245Z,96.8
2023-04-05T07:18:19.113Z,96.3
2023-04-05T07:21:06.850Z,96.2
2023-04-05T07:23:54.323Z,96.1
2023-04-05T07:26:45.331Z,95.9
2023-04-05T07:29:32.920Z,96.2
2023-04-05T07:32:25.265Z,95.2
2023-04-05T07:35:13.624Z,95.4
2023-04-05T07:38:01.785Z,95.3
2023-04-05T07:40:50.834Z,91.5
2023-04-05T07:43:38.509Z,93.9
2023-04-05T07:46:26.057Z,93
2023-04-05T07:49:14.469Z,92.3
2023-04-05T07:52:02.956Z,90.1
2023-04-05T07:54:51.595Z,89.3
2023-04-05T07:57:39.546Z,88.2
2023-04-05T08:00:27.097Z,86.7
2023-04-05T08:03:14.645Z,86
2023-04-05T08:06:02.565Z,86.7
2023-04-05T08:09:02.554Z,85.4
2023-04-05T08:11:52.936Z,86.2
2023-04-05T08:14:42.029Z,86.9
2023-04-05T08:17:29.505Z,83.9
2023-04-05T08:20:17.034Z,84
2023-04-05T08:23:04.778Z,82.5
2023-04-05T08:25:52.664Z,81.6
2023-04-05T08:28:40.497Z,80.3
2023-04-05T08:31:28.228Z,80.3
2023-04-05T08:34:16.063Z,76.1
2023-04-05T08:37:03.919Z,78.1
2023-04-05T08:39:52.176Z,79.5
2023-04-05T08:42:39.863Z,78.1
2023-04-05T08:45:31.319Z,75.9
2023-04-05T08:48:24.103Z,76.3
2023-04-05T08:51:13.555Z,75.8
2023-04-05T08:54:05.713Z,76.7
2023-04-05T08:56:53.492Z,75.3
2023-04-05T08:59:44.310Z,73.7
2023-04-05T09:02:32.783Z,75.5
2023-04-05T09:05:21.520Z,73.5
2023-04-05T09:08:09.477Z,71.3
2023-04-05T09:10:58.053Z,73.3
2023-04-05T09:13:45.749Z,72.4
2023-04-05T09:16:33.351Z,70
2023-04-05T09:19:23.574Z,70.1
2023-04-05T09:22:11.126Z,68.5
2023-04-05T09:25:03.313Z,66.9
2023-04-05T09:27:52.814Z,65.9
2023-04-05T09:30:41.321Z,62.9
2023-04-05T09:33:31.792Z,66.3
2023-04-05T09:36:20.487Z,66.8
2023-04-05T09:39:08.385Z,64.7
2023-04-05T09:41:56.013Z,65.9
2023-04-05T09:44:54.450Z,67.6
2023-04-05T09:47:49.949Z,65.7
2023-04-05T09:50:41.659Z,67.5
2023-04-05T09:53:29.556Z,65.9
2023-04-05T09:56:17.849Z,60.4
2023-04-05T09:59:05.710Z,62.2
2023-04-05T10:01:55.346Z,61
2023-04-05T10:04:42.978Z,61.5
2023-04-05T10:07:32.792Z,57.3
2023-04-05T10:10:20.935Z,55.6
2023-04-05T10:13:10.131Z,58.2
2023-04-05T10:15:59.032Z,56
2023-04-05T10:18:51.511Z,57
2023-04-05T10:21:39.254Z,56.1
2023-04-05T10:24:28.959Z,56.8
2023-04-05T10:27:25.238Z,57.9
2023-04-05T10:30:18.119Z,56
2023-04-05T10:33:09.056Z,53.4
2023-04-05T10:36:05.462Z,52.5
2023-04-05T10:39:04.397Z,54
2023-04-05T10:42:00.631Z,53.1
2023-04-05T10:44:56.412Z,52.9
2023-04-05T10:47:54.682Z,55.3
2023-04-05T10:50:51.619Z,54.6
2023-04-05T10:53:41.375Z,55.9
2023-04-05T10:56:30.764Z,55.4
2023-04-05T10:59:18.704Z,56.3
2023-04-05T11:02:07.086Z,55.6
2023-04-05T11:04:55.531Z,54.3
2023-04-05T11:07:49.500Z,53.3
2023-04-05T11:10:41.355Z,50.9
2023-04-05T11:13:38.581Z,51.4
2023-04-05T11:16:38.356Z,52.6
2023-04-05T11:19:39.269Z,49.3
2023-04-05T11:22:36.789Z,46.7
2023-04-05T11:25:24.387Z,50.7
2023-04-05T11:28:12.328Z,50.2
2023-04-05T11:31:09.699Z,48.1
2023-04-05T11:34:00.841Z,45.5
2023-04-05T11:36:54.934Z,45.7
2023-04-05T11:39:42.477Z,46.2
2023-04-05T11:42:30.197Z,46
2023-04-05T11:45:17.926Z,46.1
2023-04-05T11:48:08.571Z,46
2023-04-05T11:50:58.068Z,45.5
2023-04-05T11:53:46.051Z,46
2023-04-05T11:56:34.152Z,46.8
2023-04-05T11:59:22.512Z,48.4
2023-04-05T12:02:18.540Z,48.1
2023-04-05T12:05:07.808Z,47.7
2023-04-05T12:07:55.864Z,48.3
2023-04-05T12:10:43.523Z,47.7
2023-04-05T12:13:38.840Z,47.8
2023-04-05T12:16:26.892Z,50.6
2023-04-05T12:19:14.924Z,50
2023-04-05T12:22:02.771Z,48.2
2023-04-05T12:24:52.045Z,49.2
2023-04-05T12:27:39.850Z,48.2
2023-04-05T12:30:27.850Z,48.9
2023-04-05T12:33:22.775Z,47.6
2023-04-05T12:36:13.190Z,45
2023-04-05T12:39:01.166Z,42.3
2023-04-05T12:41:54.324Z,44.5
2023-04-05T12:44:43.573Z,43.5
2023-04-05T12:47:47.570Z,40.8
2023-04-05T12:50:36.939Z,39.1
2023-04-05T12:53:29.240Z,38.9
2023-04-05T12:56:18.072Z,38
2023-04-05T12:59:06.617Z,37
2023-04-05T13:01:54.664Z,38
2023-04-05T13:04:42.486Z,39.2
2023-04-05T13:07:30.215Z,39.2
2023-04-05T13:10:17.804Z,39.9
2023-04-05T13:13:07.069Z,39.8
2023-04-05T13:15:55.362Z,38.4
2023-04-05T13:18:42.951Z,38.4
2023-04-05T13:21:30.870Z,40.7
2023-04-05T13:24:18.578Z,42.5
2023-04-05T13:27:06.406Z,42.5
2023-04-05T13:29:54.017Z,41.5
2023-04-05T13:32:42.045Z,41.7
2023-04-05T13:35:29.812Z,41.4
2023-04-05T13:38:17.615Z,34.8
2023-04-05T13:41:06.755Z,35.9
2023-04-05T13:43:54.407Z,33.9
2023-04-05T13:46:42.130Z,35.2
2023-04-05T13:49:30.278Z,35.6
2023-04-05T13:52:17.792Z,36.4
2023-04-05T13:55:05.908Z,37.8
2023-04-05T13:57:54.182Z,38.4
2023-04-05T14:00:44.135Z,39.2
2023-04-05T14:03:32.055Z,38.4
2023-04-05T14:06:19.991Z,38.1
2023-04-05T14:09:07.769Z,38.3
2023-04-05T14:11:55.794Z,39.2
2023-04-05T14:14:43.679Z,37.8
2023-04-05T14:17:31.453Z,38.4
2023-04-05T14:20:19.287Z,36.7
2023-04-05T14:23:07.233Z,38.1
2023-04-05T14:25:55.027Z,37.1
2023-04-05T14:28:42.964Z,35.1
2023-04-05T14:31:30.645Z,33.7
2023-04-05T14:34:18.610Z,33.7
2023-04-05T14:37:06.127Z,32.4
2023-04-05T14:39:54.032Z,32
2023-04-05T14:42:49.065Z,33.4
2023-04-05T14:45:38.365Z,34.1
2023-04-05T14:48:25.934Z,34.1
2023-04-05T14:51:15.469Z,31.3
2023-04-05T14:54:03.641Z,33.3
2023-04-05T14:56:52.827Z,32.7
2023-04-05T14:59:40.616Z,32.7
2023-04-05T15:02:28.724Z,32.8
2023-04-05T15:05:16.998Z,33.3
2023-04-05T15:08:05.299Z,34.2
2023-04-05T15:10:53.668Z,31.7
2023-04-05T15:13:41.555Z,31
2023-04-05T15:16:29.189Z,33
2023-04-05T15:19:16.890Z,33.9
2023-04-05T15:22:04.913Z,32.1
2023-04-05T15:24:53.131Z,31.8
2023-04-05T15:27:41.653Z,33.6
2023-04-05T15:30:30.537Z,33.7
2023-04-05T15:33:18.366Z,33.9
2023-04-05T15:36:06.569Z,33.8
2023-04-05T15:38:54.946Z,33.7
2023-04-05T15:41:42.645Z,32.9
2023-04-05T15:44:31.472Z,31.6
2023-04-05T15:47:19.729Z,31.3
2023-04-05T15:50:08.572Z,32.1
2023-04-05T15:52:57.934Z,32.7
2023-04-05T15:55:45.710Z,32.3
2023-04-05T15:58:33.568Z,32.3
2023-04-05T16:01:22.306Z,31.9
2023-04-05T16:04:10.169Z,32.9
2023-04-05T16:06:58.077Z,32.2
2023-04-05T16:09:46.329Z,31.2
2023-04-05T16:12:34.903Z,32.6
2023-04-05T16:15:23.274Z,32.2
2023-04-05T16:18:11.201Z,32.7
2023-04-05T16:20:59.449Z,33.5
2023-04-05T16:23:48.383Z,34.5
2023-04-05T16:26:37.305Z,35.7
2023-04-05T16:29:26.007Z,35.5
2023-04-05T16:32:14.012Z,36
2023-04-05T16:35:02.243Z,36.3
2023-04-05T16:37:51.902Z,34.5
2023-04-05T16:40:39.729Z,33.3
2023-04-05T16:43:28.829Z,33.8
2023-04-05T16:46:16.942Z,35.2
2023-04-05T16:49:05.157Z,35.3
2023-04-05T16:51:53.356Z,35.9
2023-04-05T16:54:41.570Z,36.7
2023-04-05T16:57:29.322Z,38.6
2023-04-05T17:00:17.763Z,38.4
2023-04-05T17:03:06.145Z,39
2023-04-05T17:05:53.829Z,39.7
2023-04-05T17:08:41.469Z,38.5
2023-04-05T17:11:29.109Z,39.6
2023-04-05T17:14:16.753Z,40.6
2023-04-05T17:17:04.982Z,42
2023-04-05T17:19:53.380Z,41.8
2023-04-05T17:22:41.115Z,41.3
2023-04-05T17:25:28.680Z,42.9
2023-04-05T17:28:16.218Z,43.4
2023-04-05T17:31:04.350Z,44.3
2023-04-05T17:33:52.539Z,44.7
2023-04-05T17:36:40.543Z,45.4
2023-04-05T17:39:29.756Z,46
2023-04-05T17:42:17.274Z,46.9
2023-04-05T17:45:05.285Z,47
2023-04-05T17:47:54.227Z,48.2
2023-04-05T17:50:42.017Z,48.2
2023-04-05T17:53:30.070Z,48.2
2023-04-05T17:56:17.625Z,47.9
2023-04-05T17:59:07.877Z,48.1
2023-04-05T18:01:55.874Z,48.8
2023-04-05T18:04:43.548Z,50
2023-04-05T18:07:31.294Z,50.3
2023-04-05T18:10:21.098Z,50.6
2023-04-05T18:13:08.834Z,50.7
2023-04-05T18:15:57.030Z,51.2
2023-04-05T18:18:45.357Z,51.5
2023-04-05T18:21:33.053Z,51.3
2023-04-05T18:24:20.814Z,50.7
2023-04-05T18:27:08.802Z,52.1
2023-04-05T18:29:57.009Z,51.6
2023-04-05T18:32:45.104Z,52.1
2023-04-05T18:35:33.126Z,52.7
2023-04-05T18:38:21.401Z,53.7
2023-04-05T18:41:08.923Z,54
2023-04-05T18:43:57.212Z,54.2
2023-04-05T18:46:44.786Z,54
2023-04-05T18:49:33.522Z,54.7
2023-04-05T18:52:21.774Z,55
2023-04-05T18:55:11.785Z,54.4
2023-04-05T18:58:00.153Z,54.3
2023-04-05T19:00:49.107Z,54.3
2023-04-05T19:03:36.812Z,53.7
2023-04-05T19:06:24.522Z,53.8
2023-04-05T19:09:12.717Z,54.7
2023-04-05T19:12:02.067Z,56.1
2023-04-05T19:14:51.445Z,55.6
2023-04-05T19:17:39.043Z,56.5
2023-04-05T19:20:26.641Z,56.4
2023-04-05T19:23:14.240Z,56.7
2023-04-05T19:26:02.164Z,57.1
2023-04-05T19:28:51.484Z,57.7
2023-04-05T19:31:39.763Z,56.9
2023-04-05T19:34:27.764Z,57.2
2023-04-05T19:37:16.504Z,57.1
2023-04-05T19:40:04.534Z,57.5
2023-04-05T19:42:55.335Z,58.8
2023-04-05T19:45:44.238Z,58.9
2023-04-05T19:48:41.598Z,58.6
2023-04-05T19:51:30.584Z,59.4
2023-04-05T19:54:18.378Z,59.5
2023-04-05T19:57:07.183Z,59.4
2023-04-05T19:59:56.345Z,59.3
2023-04-05T20:02:44.000Z,57.8
2023-04-05T20:05:31.791Z,58.6
2023-04-05T20:08:57.689Z,58.5
2023-04-05T20:11:49.938Z,58.8
2023-04-05T20:14:42.517Z,59
2023-04-05T20:17:31.055Z,59.7
2023-04-05T20:20:19.864Z,60.1
2023-04-05T20:23:07.705Z,60.9
2023-04-05T20:25:56.536Z,61.6
2023-04-05T20:28:44.926Z,61.2
2023-04-05T20:31:39.653Z,61.4
2023-04-05T20:34:28.746Z,59.9
2023-04-05T20:37:18.945Z,60.4
2023-04-05T20:40:06.989Z,60.9
2023-04-05T20:42:56.528Z,61
2023-04-05T20:45:44.619Z,60.3
2023-04-05T20:48:32.498Z,60.8
2023-04-05T20:51:21.493Z,61.9
2023-04-05T20:54:09.508Z,61.9
2023-04-05T20:56:57.320Z,62.2
2023-04-05T20:59:44.864Z,62.6
2023-04-05T21:02:32.557Z,62.3
2023-04-05T21:05:20.684Z,61.8
2023-04-05T21:08:08.333Z,61.4
2023-04-05T21:10:56.035Z,62.3
2023-04-05T21:13:44.064Z,62
2023-04-05T21:16:32.127Z,62.4
2023-04-05T21:19:19.731Z,62.7
2023-04-05T21:22:07.339Z,62.8
2023-04-05T21:24:55.066Z,63
2023-04-05T21:27:42.748Z,63.2
2023-04-05T21:30:30.544Z,63.3
2023-04-05T21:33:18.726Z,62.6
2023-04-05T21:36:06.510Z,63
2023-04-05T21:38:54.359Z,63.5
2023-04-05T21:41:41.909Z,63
2023-04-05T21:44:29.556Z,63.5
2023-04-05T21:47:17.242Z,64.3
2023-04-05T21:50:05.501Z,63.5
2023-04-05T21:52:55.918Z,63.2
2023-04-05T21:55:43.422Z,63.4
2023-04-05T21:58:31.115Z,63
2023-04-05T22:01:18.744Z,63.5
2023-04-05T22:04:06.454Z,63.9
2023-04-05T22:06:53.905Z,63.4
2023-04-05T22:09:41.444Z,64.2
2023-04-05T22:12:29.070Z,64.9
2023-04-05T22:15:16.817Z,65.7
2023-04-05T22:18:04.647Z,65.6
2023-04-05T22:20:52.985Z,65.5
2023-04-05T22:23:42.826Z,65.5
2023-04-05T22:26:31.168Z,65.6
2023-04-05T22:29:18.746Z,66.2
2023-04-05T22:32:06.594Z,66.2
2023-04-05T22:34:54.869Z,65.9
2023-04-05T22:37:42.526Z,67
2023-04-05T22:40:30.272Z,66.6
2023-04-05T22:43:17.803Z,67.3
2023-04-05T22:46:05.588Z,68.3
2023-04-05T22:48:53.317Z,69.2
2023-04-05T22:51:40.923Z,69.1
2023-04-05T22:54:28.514Z,68.8
2023-04-05T22:57:15.999Z,68.8
2023-04-05T23:00:04.097Z,70.2
2023-04-05T23:02:55.325Z,70.3
2023-04-05T23:05:42.995Z,70.5
2023-04-05T23:08:30.474Z,71.1
2023-04-05T23:11:20.026Z,72.5
2023-04-05T23:14:07.868Z,72
2023-04-05T23:16:55.909Z,72.4
2023-04-05T23:19:43.467Z,72.2
2023-04-05T23:22:31.079Z,72.6
2023-04-05T23:25:20.561Z,73.5
2023-04-05T23:28:08.376Z,74.3
2023-04-05T23:30:55.798Z,74.7
2023-04-05T23:33:43.298Z,74.9
2023-04-05T23:36:31.407Z,76
2023-04-05T23:39:19.057Z,76.7
2023-04-05T23:42:06.653Z,77.8
2023-04-05T23:44:54.539Z,79.5
2023-04-05T23:47:42.184Z,79.8
2023-04-05T23:50:30.075Z,79.7
2023-04-05T23:53:17.643Z,78.5
2023-04-05T23:56:05.482Z,78.2
2023-04-05T23:58:53.609Z,78
